createdAt,value
2023-01-18T00:01:19.643Z,66923.41
2023-01-18T00:03:47.215Z,66925.63
2023-01-18T00:06:14.607Z,66921.94
2023-01-18T00:08:42.612Z,66926.41
2023-01-18T00:11:15.936Z,66932.94
2023-01-18T00:13:43.514Z,66932.78
2023-01-18T00:16:14.367Z,66884.25
2023-01-18T00:18:41.866Z,66885.75
2023-01-18T00:21:11.155Z,66932.38
2023-01-18T00:23:38.710Z,66932.38
2023-01-18T00:26:11.027Z,66931.47
2023-01-18T00:28:39.825Z,66895.28
2023-01-18T00:31:12.348Z,66951.78
2023-01-18T00:33:42.036Z,66906.47
2023-01-18T00:36:09.217Z,66957.06
2023-01-18T00:38:36.290Z,66963.78
2023-01-18T00:41:03.539Z,66965.44
2023-01-18T00:43:39.360Z,66967.34
2023-01-18T00:46:12.252Z,66970.16
2023-01-18T00:48:40.976Z,66977.44
2023-01-18T00:51:10.584Z,66986.22
2023-01-18T00:53:38.282Z,66993.28
2023-01-18T00:56:10.018Z,66996.66
2023-01-18T00:58:37.640Z,66992.94
2023-01-18T01:01:06.589Z,66948.50
2023-01-18T01:03:54.674Z,66995.19
2023-01-18T01:06:46.521Z,66989.78
2023-01-18T01:09:26.024Z,66990.69
2023-01-18T01:12:12.571Z,66952.22
2023-01-18T01:15:04.025Z,66958.03
2023-01-18T01:17:51.883Z,67011.09
2023-01-18T01:20:38.266Z,66981.59
2023-01-18T01:23:32.429Z,67021.78
2023-01-18T01:26:10.817Z,67026.59
2023-01-18T01:28:41.091Z,66976.53
2023-01-18T01:31:13.420Z,67012.22
2023-01-18T01:33:43.884Z,67017.28
2023-01-18T01:36:14.047Z,67012.59
2023-01-18T01:38:41.780Z,66961.97
2023-01-18T01:41:17.776Z,67003.59
2023-01-18T01:43:56.291Z,66959.72
2023-01-18T01:46:46.534Z,67000.66
2023-01-18T01:49:18.420Z,67001.38
2023-01-18T01:51:51.087Z,66994.63
2023-01-18T01:54:27.512Z,66994.06
2023-01-18T01:57:12.182Z,66944.81
2023-01-18T01:59:45.911Z,66996.31
2023-01-18T02:02:13.227Z,66991.13
2023-01-18T02:04:44.291Z,66994.84
2023-01-18T02:07:12.131Z,67000.44
2023-01-18T02:09:40.002Z,66970.75
2023-01-18T02:12:07.130Z,67017.28
2023-01-18T02:14:34.185Z,67041.19
2023-01-18T02:17:22.039Z,67008.72
2023-01-18T02:20:11.056Z,67057.47
2023-01-18T02:23:00.984Z,67046.81
2023-01-18T02:26:02.245Z,67049.41
2023-01-18T02:28:41.339Z,67038.94
2023-01-18T02:31:19.136Z,67030.53
2023-01-18T02:34:04.024Z,67031.66
2023-01-18T02:36:48.896Z,67037.84
2023-01-18T02:39:38.221Z,67042.31
2023-01-18T02:42:37.587Z,67040.06
2023-01-18T02:45:37.554Z,67028.16
2023-01-18T02:48:06.089Z,67051.84
2023-01-18T02:50:33.237Z,67055.66
2023-01-18T02:53:00.504Z,67060.69
2023-01-18T02:55:46.078Z,67051.31
2023-01-18T02:58:31.223Z,67042.31
2023-01-18T03:01:04.464Z,67028.72
2023-01-18T03:03:34.405Z,67027.72
2023-01-18T03:06:05.837Z,67030.19
2023-01-18T03:08:50.997Z,67029.41
2023-01-18T03:11:25.968Z,67016.72
2023-01-18T03:14:14.000Z,67011.47
2023-01-18T03:17:00.038Z,67008.88
2023-01-18T03:19:58.753Z,67015.38
2023-01-18T03:22:47.826Z,67024.56
2023-01-18T03:25:20.423Z,67028.84
2023-01-18T03:28:08.278Z,67024.22
2023-01-18T03:30:55.776Z,67031.88
2023-01-18T03:33:47.412Z,66992.81
2023-01-18T03:36:22.185Z,67043.22
2023-01-18T03:38:55.855Z,66987.22
2023-01-18T03:41:30.534Z,67038.03
2023-01-18T03:44:03.043Z,67024.38
2023-01-18T03:46:32.303Z,67021.00
2023-01-18T03:49:00.130Z,67004.16
2023-01-18T03:52:00.201Z,66991.25
2023-01-18T03:54:39.896Z,66985.63
2023-01-18T03:57:15.259Z,66983.41
2023-01-18T03:59:42.477Z,66978.56
2023-01-18T04:02:10.200Z,66982.84
2023-01-18T04:04:37.251Z,66984.72
2023-01-18T04:07:04.353Z,66985.31
2023-01-18T04:09:31.439Z,66990.13
2023-01-18T04:11:58.825Z,66989.22
2023-01-18T04:14:26.069Z,66991.81
2023-01-18T04:16:53.260Z,66945.16
2023-01-18T04:19:20.389Z,66944.25
2023-01-18T04:21:47.553Z,66993.72
2023-01-18T04:24:16.383Z,66945.16
2023-01-18T04:26:43.481Z,66989.59
2023-01-18T04:29:10.683Z,66939.19
2023-01-18T04:31:38.081Z,66999.09
2023-01-18T04:34:05.245Z,67005.84
2023-01-18T04:36:35.068Z,67002.13
2023-01-18T04:39:07.554Z,67009.00
2023-01-18T04:41:34.670Z,66959.72
2023-01-18T04:44:01.845Z,67010.69
2023-01-18T04:46:29.104Z,66967.00
2023-01-18T04:48:56.238Z,67007.94
2023-01-18T04:51:24.103Z,67012.91
2023-01-18T04:53:51.316Z,67006.63
2023-01-18T04:56:18.969Z,66992.81
2023-01-18T04:58:48.993Z,67007.31
2023-01-18T05:01:17.240Z,67004.16
2023-01-18T05:03:44.550Z,67006.41
2023-01-18T05:06:16.358Z,66959.16
2023-01-18T05:08:43.524Z,67002.91
2023-01-18T05:11:14.087Z,67014.25
2023-01-18T05:13:43.198Z,67012.22
2023-01-18T05:16:15.696Z,67019.53
2023-01-18T05:18:43.687Z,67036.16
2023-01-18T05:21:11.910Z,67033.69
2023-01-18T05:23:42.588Z,66983.84
2023-01-18T05:26:15.903Z,67014.47
2023-01-18T05:28:43.526Z,67003.44
2023-01-18T05:31:10.976Z,67008.63
2023-01-18T05:33:38.080Z,66960.28
2023-01-18T05:36:11.376Z,67012.38
2023-01-18T05:38:41.060Z,67020.78
2023-01-18T05:41:11.255Z,67003.81
2023-01-18T05:43:38.477Z,66996.19
2023-01-18T05:46:06.330Z,67009.78
2023-01-18T05:48:33.407Z,67019.31
2023-01-18T05:51:07.751Z,67013.91
2023-01-18T05:53:35.365Z,67005.72
2023-01-18T05:56:05.309Z,67016.84
2023-01-18T05:58:32.537Z,67020.66
2023-01-18T06:00:59.841Z,67024.91
2023-01-18T06:03:26.992Z,67028.16
2023-01-18T06:05:58.429Z,67032.22
2023-01-18T06:08:25.622Z,67042.53
2023-01-18T06:10:57.786Z,67047.38
2023-01-18T06:13:29.526Z,67050.72
2023-01-18T06:15:58.194Z,67039.94
2023-01-18T06:18:27.441Z,67042.19
2023-01-18T06:21:01.117Z,67041.75
2023-01-18T06:23:29.989Z,67033.75
2023-01-18T06:25:57.327Z,67035.03
2023-01-18T06:28:30.265Z,67017.84
2023-01-18T06:30:59.092Z,66969.47
2023-01-18T06:33:26.214Z,66965.91
2023-01-18T06:35:53.336Z,67021.00
2023-01-18T06:38:20.774Z,67015.38
2023-01-18T06:40:48.112Z,66970.75
2023-01-18T06:43:16.026Z,67010.00
2023-01-18T06:45:43.283Z,67016.72
2023-01-18T06:48:10.463Z,67022.47
2023-01-18T06:50:37.648Z,67013.69
2023-01-18T06:53:04.736Z,66965.31
2023-01-18T06:55:31.956Z,66960.28
2023-01-18T06:57:59.092Z,67004.72
2023-01-18T07:00:26.276Z,67005.28
2023-01-18T07:02:53.443Z,66965.31
2023-01-18T07:05:20.783Z,67015.38
2023-01-18T07:07:47.916Z,67013.34
2023-01-18T07:10:16.605Z,67006.41
2023-01-18T07:12:48.551Z,66964.78
2023-01-18T07:15:21.884Z,67009.78
2023-01-18T07:17:50.546Z,67009.22
2023-01-18T07:20:18.327Z,67011.66
2023-01-18T07:22:45.711Z,67023.03
2023-01-18T07:25:18.706Z,67020.44
2023-01-18T07:27:46.269Z,67017.63
2023-01-18T07:30:13.804Z,67018.97
2023-01-18T07:32:48.648Z,67016.94
2023-01-18T07:35:18.553Z,67031.09
2023-01-18T07:37:53.222Z,67027.94
2023-01-18T07:40:21.756Z,66977.88
2023-01-18T07:42:50.048Z,67036.72
2023-01-18T07:45:17.304Z,67029.28
2023-01-18T07:47:46.264Z,67034.66
2023-01-18T07:50:14.457Z,67031.66
2023-01-18T07:52:41.593Z,67024.78
2023-01-18T07:55:09.131Z,67033.91
2023-01-18T07:57:36.341Z,67042.75
2023-01-18T08:00:07.091Z,67047.94
2023-01-18T08:02:39.741Z,67046.81
2023-01-18T08:05:10.637Z,66996.75
2023-01-18T08:07:37.899Z,67055.78
2023-01-18T08:10:05.489Z,67059.16
2023-01-18T08:12:32.684Z,67058.59
2023-01-18T08:15:00.810Z,67021.22
2023-01-18T08:17:29.787Z,67059.59
2023-01-18T08:19:57.072Z,67059.16
2023-01-18T08:22:24.398Z,67053.19
2023-01-18T08:24:51.509Z,67064.41
2023-01-18T08:27:18.756Z,67072.28
2023-01-18T08:29:47.068Z,67068.47
2023-01-18T08:32:19.831Z,67025.34
2023-01-18T08:34:47.098Z,67066.47
2023-01-18T08:37:14.223Z,67067.78
2023-01-18T08:39:41.366Z,67068.16
2023-01-18T08:42:12.149Z,67063.66
2023-01-18T08:44:41.446Z,67069.25
2023-01-18T08:47:11.260Z,67019.16
2023-01-18T08:49:40.872Z,67048.34
2023-01-18T08:52:10.896Z,67057.69
2023-01-18T08:54:38.020Z,67056.34
2023-01-18T08:57:10.725Z,67055.22
2023-01-18T08:59:41.592Z,67065.56
2023-01-18T09:02:14.676Z,67063.66
2023-01-18T09:04:44.019Z,67064.97
2023-01-18T09:07:11.208Z,67073.75
2023-01-18T09:09:41.667Z,67086.09
2023-01-18T09:12:11.097Z,67096.22
2023-01-18T09:14:40.110Z,67096.22
2023-01-18T09:17:21.043Z,67101.47
2023-01-18T09:19:48.193Z,67109.13
2023-01-18T09:22:18.378Z,67112.50
2023-01-18T09:24:48.544Z,67118.88
2023-01-18T09:27:15.738Z,67121.34
2023-01-18T09:29:43.076Z,67135.19
2023-01-18T09:32:10.671Z,67145.09
2023-01-18T09:34:43.966Z,67163.06
2023-01-18T09:37:11.069Z,67178.78
2023-01-18T09:39:51.361Z,67188.34
2023-01-18T09:42:25.374Z,67191.91
2023-01-18T09:44:58.937Z,67209.69
2023-01-18T09:47:31.383Z,67215.16
2023-01-18T09:50:10.894Z,67220.22
2023-01-18T09:53:05.230Z,67232.03
2023-01-18T09:55:39.731Z,67236.31
2023-01-18T09:58:31.558Z,67233.50
2023-01-18T10:01:12.743Z,67210.09
2023-01-18T10:04:01.148Z,67148.28
2023-01-18T10:06:43.019Z,67173.38
2023-01-18T10:09:22.624Z,67167.53
2023-01-18T10:12:10.481Z,67163.47
2023-01-18T10:14:37.690Z,67177.88
2023-01-18T10:17:14.847Z,67179.91
2023-01-18T10:19:42.035Z,67174.50
2023-01-18T10:22:21.339Z,67184.41
2023-01-18T10:24:58.223Z,67174.50
2023-01-18T10:27:48.404Z,67188.13
2023-01-18T10:30:49.930Z,67201.81
2023-01-18T10:33:29.471Z,67203.94
2023-01-18T10:36:11.933Z,67218.69
2023-01-18T10:38:40.872Z,67196.41
2023-01-18T10:41:18.810Z,67199.00
2023-01-18T10:43:46.316Z,67188.75
2023-01-18T10:46:18.808Z,67193.81
2023-01-18T10:48:52.088Z,67196.41
2023-01-18T10:51:36.947Z,67211.59
2023-01-18T10:54:22.158Z,67218.13
2023-01-18T10:56:49.816Z,67231.25
2023-01-18T10:59:33.326Z,67219.09
2023-01-18T11:02:01.155Z,67227.69
2023-01-18T11:04:31.256Z,67218.91
2023-01-18T11:07:03.297Z,67222.06
2023-01-18T11:09:34.535Z,67217.22
2023-01-18T11:12:33.990Z,67213.63
2023-01-18T11:15:13.074Z,67207.44
2023-01-18T11:17:44.404Z,67203.72
2023-01-18T11:20:30.063Z,67203.16
2023-01-18T11:23:14.780Z,67223.03
2023-01-18T11:25:41.828Z,67244.34
2023-01-18T11:28:18.060Z,67247.00
2023-01-18T11:31:07.981Z,67250.38
2023-01-18T11:33:40.352Z,67247.56
2023-01-18T11:36:07.882Z,67243.06
2023-01-18T11:38:35.219Z,67231.03
2023-01-18T11:41:23.560Z,67217.63
2023-01-18T11:44:12.699Z,67214.56
2023-01-18T11:46:47.081Z,67195.09
2023-01-18T11:49:37.050Z,67200.13
2023-01-18T11:52:17.566Z,67226.19
2023-01-18T11:54:54.688Z,67224.50
2023-01-18T11:57:21.836Z,67234.06
2023-01-18T11:59:49.192Z,67226.56
2023-01-18T12:02:25.640Z,67220.00
2023-01-18T12:04:52.693Z,67221.16
2023-01-18T12:07:35.025Z,67235.75
2023-01-18T12:10:02.823Z,67244.56
2023-01-18T12:12:29.907Z,67223.59
2023-01-18T12:15:29.431Z,67213.06
2023-01-18T12:18:22.204Z,67209.13
2023-01-18T12:21:12.449Z,67199.78
2023-01-18T12:24:05.791Z,67180.88
2023-01-18T12:26:38.708Z,67178.09
2023-01-18T12:29:27.734Z,67181.59
2023-01-18T12:32:34.678Z,67180.69
2023-01-18T12:35:23.590Z,67182.94
2023-01-18T12:38:01.254Z,67168.88
2023-01-18T12:40:43.944Z,67162.69
2023-01-18T12:43:22.421Z,67168.31
2023-01-18T12:46:02.793Z,67171.47
2023-01-18T12:48:33.120Z,67170.91
2023-01-18T12:51:00.621Z,67164.94
2023-01-18T12:53:45.983Z,67162.13
2023-01-18T12:56:39.301Z,67158.22
2023-01-18T12:59:13.794Z,67140.22
2023-01-18T13:01:51.848Z,67139.88
2023-01-18T13:04:36.438Z,67145.63
2023-01-18T13:07:15.941Z,67141.34
2023-01-18T13:09:49.383Z,67135.72
2023-01-18T13:12:21.082Z,67132.94
2023-01-18T13:15:15.370Z,67126.97
2023-01-18T13:18:16.795Z,67131.59
2023-01-18T13:21:10.073Z,67120.91
2023-01-18T13:23:55.520Z,67120.38
2023-01-18T13:26:29.889Z,67122.06
2023-01-18T13:29:28.603Z,67112.72
2023-01-18T13:31:57.369Z,67108.22
2023-01-18T13:34:30.344Z,67099.22
2023-01-18T13:37:13.373Z,67105.19
2023-01-18T13:39:48.820Z,67101.47
2023-01-18T13:42:21.861Z,67106.13
2023-01-18T13:45:17.341Z,67101.28
2023-01-18T13:47:55.118Z,67099.03
2023-01-18T13:50:40.093Z,67098.31
2023-01-18T13:53:12.231Z,67103.50
2023-01-18T13:56:11.800Z,67083.72
2023-01-18T13:58:45.182Z,67087.78
2023-01-18T14:01:23.206Z,67084.97
2023-01-18T14:03:52.375Z,67086.09
2023-01-18T14:06:33.318Z,67084.41
2023-01-18T14:09:07.405Z,67087.78
2023-01-18T14:11:41.672Z,67092.84
2023-01-18T14:14:11.860Z,67096.44
2023-01-18T14:16:54.557Z,67100.50
2023-01-18T14:19:23.801Z,67090.03
2023-01-18T14:22:12.787Z,67092.28
2023-01-18T14:24:54.344Z,67033.97
2023-01-18T14:27:28.993Z,67036.00
2023-01-18T14:30:15.863Z,67077.13
2023-01-18T14:32:55.600Z,67084.41
2023-01-18T14:35:25.881Z,67079.94
2023-01-18T14:38:17.411Z,67077.00
2023-01-18T14:40:48.311Z,67082.97
2023-01-18T14:43:23.493Z,67079.59
2023-01-18T14:46:01.017Z,67081.63
2023-01-18T14:48:30.876Z,67080.69
2023-01-18T14:50:59.889Z,67075.31
2023-01-18T14:53:33.785Z,67078.44
2023-01-18T14:56:10.975Z,67074.31
2023-01-18T14:58:54.691Z,67077.91
2023-01-18T15:01:38.367Z,67080.69
2023-01-18T15:04:18.452Z,67075.31
2023-01-18T15:06:49.683Z,67080.50
2023-01-18T15:09:20.359Z,67077.34
2023-01-18T15:11:49.639Z,67077.91
2023-01-18T15:14:23.805Z,67070.03
2023-01-18T15:16:55.159Z,67073.75
2023-01-18T15:19:45.421Z,67065.75
2023-01-18T15:22:16.877Z,67075.78
2023-01-18T15:24:45.554Z,67021.44
2023-01-18T15:27:16.002Z,67064.06
2023-01-18T15:29:48.478Z,67061.28
2023-01-18T15:32:20.969Z,67061.59
2023-01-18T15:34:50.710Z,67063.88
2023-01-18T15:37:30.399Z,67065.88
2023-01-18T15:40:01.883Z,67058.44
2023-01-18T15:42:31.980Z,67065.88
2023-01-18T15:45:00.180Z,67063.50
2023-01-18T15:47:30.218Z,67055.66
2023-01-18T15:50:00.408Z,67055.66
2023-01-18T15:52:45.058Z,67054.53
2023-01-18T15:55:28.052Z,67053.97
2023-01-18T15:58:03.355Z,67061.41
2023-01-18T16:00:55.108Z,67056.22
2023-01-18T16:03:34.699Z,67051.72
2023-01-18T16:06:16.783Z,67056.56
2023-01-18T16:09:13.740Z,67053.19
2023-01-18T16:11:44.286Z,67054.09
2023-01-18T16:14:20.427Z,67051.50
2023-01-18T16:16:47.808Z,67050.03
2023-01-18T16:19:34.883Z,67006.84
2023-01-18T16:22:05.009Z,67047.94
2023-01-18T16:24:55.254Z,67044.97
2023-01-18T16:27:25.706Z,67043.31
2023-01-18T16:29:57.122Z,67044.78
2023-01-18T16:32:24.273Z,67047.03
2023-01-18T16:34:53.295Z,67044.97
2023-01-18T16:37:25.148Z,67004.59
2023-01-18T16:39:55.446Z,67045.69
2023-01-18T16:42:37.032Z,67042.31
2023-01-18T16:45:23.820Z,67040.28
2023-01-18T16:47:51.019Z,67040.06
2023-01-18T16:50:18.721Z,67041.19
2023-01-18T16:52:45.949Z,67039.53
2023-01-18T16:55:15.444Z,67038.59
2023-01-18T16:57:46.263Z,67041.19
2023-01-18T17:00:19.693Z,67043.44
2023-01-18T17:02:49.394Z,67043.44
2023-01-18T17:05:19.796Z,67043.44
2023-01-18T17:07:52.657Z,67036.56
2023-01-18T17:10:42.610Z,67035.44
2023-01-18T17:13:10.922Z,67043.78
2023-01-18T17:15:41.677Z,67040.06
2023-01-18T17:18:20.734Z,67030.97
2023-01-18T17:20:48.344Z,67031.31
2023-01-18T17:23:16.332Z,67032.78
2023-01-18T17:25:43.828Z,67024.78
2023-01-18T17:28:14.260Z,67033.00
2023-01-18T17:30:44.229Z,67032.22
2023-01-18T17:33:17.520Z,67027.38
2023-01-18T17:35:44.799Z,67025.13
2023-01-18T17:38:22.821Z,67022.34
2023-01-18T17:40:51.149Z,67026.59
2023-01-18T17:43:28.471Z,67019.53
2023-01-18T17:46:06.903Z,67022.13
2023-01-18T17:48:34.423Z,67017.28
2023-01-18T17:51:09.148Z,67014.47
2023-01-18T17:53:38.031Z,66969.81
2023-01-18T17:56:19.464Z,67016.50
2023-01-18T17:58:48.551Z,66969.25
2023-01-18T18:01:17.958Z,67013.69
2023-01-18T18:03:50.615Z,67008.31
2023-01-18T18:06:31.463Z,67005.13
2023-01-18T18:09:10.316Z,67008.63
2023-01-18T18:11:37.676Z,67009.22
2023-01-18T18:14:17.045Z,67005.50
2023-01-18T18:16:54.672Z,66960.28
2023-01-18T18:19:22.048Z,67006.97
2023-01-18T18:21:50.076Z,66998.19
2023-01-18T18:24:17.212Z,66998.53
2023-01-18T18:26:44.764Z,66990.00
2023-01-18T18:29:17.338Z,66995.94
2023-01-18T18:31:46.504Z,66992.94
2023-01-18T18:34:13.664Z,66990.69
2023-01-18T18:36:40.930Z,66987.53
2023-01-18T18:39:09.007Z,66984.53
2023-01-18T18:41:39.052Z,66983.41
2023-01-18T18:44:06.718Z,66982.84
2023-01-18T18:46:36.300Z,66982.28
2023-01-18T18:49:03.523Z,66975.41
2023-01-18T18:51:30.690Z,66972.59
2023-01-18T18:53:59.709Z,66969.81
2023-01-18T18:56:26.969Z,66971.63
2023-01-18T18:58:54.143Z,66965.66
2023-01-18T19:01:24.051Z,66962.50
2023-01-18T19:03:52.408Z,66964.53
2023-01-18T19:06:23.936Z,66961.19
2023-01-18T19:08:52.178Z,66962.88
2023-01-18T19:11:20.450Z,66964.91
2023-01-18T19:13:49.420Z,66964.00
2023-01-18T19:16:20.595Z,66959.72
2023-01-18T19:18:53.941Z,66964.91
2023-01-18T19:21:24.242Z,66960.63
2023-01-18T19:23:54.092Z,66959.13
2023-01-18T19:26:28.062Z,66956.69
2023-01-18T19:28:55.538Z,66960.41
2023-01-18T19:31:22.737Z,66955.56
2023-01-18T19:34:03.714Z,66953.88
2023-01-18T19:36:36.923Z,66947.91
2023-01-18T19:39:21.893Z,66948.63
2023-01-18T19:41:54.627Z,66895.47
2023-01-18T19:44:21.772Z,66942.47
2023-01-18T19:46:53.804Z,66937.06
2023-01-18T19:49:25.011Z,66938.53
2023-01-18T19:51:55.423Z,66937.06
2023-01-18T19:54:27.339Z,66938.19
2023-01-18T19:56:54.815Z,66938.97
2023-01-18T19:59:22.085Z,66895.28
2023-01-18T20:01:51.986Z,66939.66
2023-01-18T20:04:22.867Z,66943.56
2023-01-18T20:06:50.250Z,66893.22
2023-01-18T20:09:19.905Z,66896.94
2023-01-18T20:11:52.176Z,66941.91
2023-01-18T20:14:21.805Z,66897.16
2023-01-18T20:16:50.061Z,66946.03
2023-01-18T20:19:20.253Z,66944.34
2023-01-18T20:21:47.398Z,66950.88
2023-01-18T20:24:15.974Z,66944.00
2023-01-18T20:26:43.412Z,66948.63
2023-01-18T20:29:13.694Z,66943.78
2023-01-18T20:31:43.095Z,66944.16
2023-01-18T20:34:11.821Z,66946.38
2023-01-18T20:36:42.736Z,66943.25
2023-01-18T20:39:10.049Z,66892.47
2023-01-18T20:41:40.195Z,66936.28
2023-01-18T20:44:11.025Z,66936.28
2023-01-18T20:46:40.891Z,66939.31
2023-01-18T20:49:08.647Z,66938.97
2023-01-18T20:51:36.041Z,66937.63
2023-01-18T20:54:04.007Z,66939.09
2023-01-18T20:56:32.083Z,66930.88
2023-01-18T20:58:59.396Z,66924.72
2023-01-18T21:01:33.076Z,66914.63
2023-01-18T21:04:02.374Z,66922.50
2023-01-18T21:06:32.711Z,66913.31
2023-01-18T21:09:01.058Z,66903.97
2023-01-18T21:11:28.369Z,66898.94
2023-01-18T21:13:56.749Z,66896.47
2023-01-18T21:16:24.589Z,66884.00
2023-01-18T21:18:53.894Z,66880.22
2023-01-18T21:21:23.542Z,66829.69
2023-01-18T21:23:50.754Z,66824.09
2023-01-18T21:26:20.043Z,66871.81
2023-01-18T21:28:47.282Z,66863.28
2023-01-18T21:31:14.689Z,66863.63
2023-01-18T21:33:45.461Z,66869.22
2023-01-18T21:36:15.504Z,66871.81
2023-01-18T21:38:45.711Z,66872.94
2023-01-18T21:41:33.651Z,66874.97
2023-01-18T21:44:20.105Z,66860.59
2023-01-18T21:46:55.023Z,66845.13
2023-01-18T21:50:11.397Z,66842.09
2023-01-18T21:52:58.502Z,66835.03
2023-01-18T21:55:25.627Z,66830.00
2023-01-18T21:58:11.977Z,66831.13
2023-01-18T22:00:40.333Z,66841.19
2023-01-18T22:03:07.749Z,66789.03
2023-01-18T22:05:35.039Z,66826.31
2023-01-18T22:08:11.488Z,66837.06
2023-01-18T22:10:47.599Z,66821.25
2023-01-18T22:13:16.670Z,66830.34
2023-01-18T22:15:43.824Z,66818.59
2023-01-18T22:18:11.944Z,66815.22
2023-01-18T22:20:42.153Z,66767.75
2023-01-18T22:23:12.301Z,66761.06
2023-01-18T22:25:39.717Z,66762.75
2023-01-18T22:28:15.385Z,66757.69
2023-01-18T22:30:46.719Z,66807.38
2023-01-18T22:33:14.156Z,66800.31
2023-01-18T22:35:41.499Z,66750.75
2023-01-18T22:38:09.839Z,66788.31
2023-01-18T22:40:37.033Z,66776.22
2023-01-18T22:43:04.630Z,66779.81
2023-01-18T22:45:34.727Z,66779.59
2023-01-18T22:48:10.974Z,66772.31
2023-01-18T22:50:39.302Z,66776.56
2023-01-18T22:53:08.973Z,66765.59
2023-01-18T22:55:39.143Z,66721.66
2023-01-18T22:58:06.774Z,66773.78
2023-01-18T23:00:33.919Z,66774.78
2023-01-18T23:03:01.012Z,66732.84
2023-01-18T23:05:29.345Z,66730.06
2023-01-18T23:07:56.861Z,66770.41
2023-01-18T23:10:24.119Z,66717.41
2023-01-18T23:12:52.776Z,66760.34
2023-01-18T23:15:41.590Z,66709.91
2023-01-18T23:18:10.971Z,66751.38
2023-01-18T23:20:38.245Z,66745.22
2023-01-18T23:23:05.797Z,66736.81
2023-01-18T23:25:33.772Z,66686.06
2023-01-18T23:28:03.367Z,66735.16
2023-01-18T23:30:32.692Z,66698.16
2023-01-18T23:33:00.030Z,66709.91
2023-01-18T23:35:27.186Z,66765.38
2023-01-18T23:37:54.499Z,66764.81
2023-01-18T23:40:40.094Z,66759.75
2023-01-18T23:43:28.656Z,66703.97
2023-01-18T23:46:14.499Z,66745.22
2023-01-18T23:49:00.352Z,66691.44
2023-01-18T23:51:48.545Z,66687.53
2023-01-18T23:54:16.121Z,66727.28
2023-01-18T23:56:46.672Z,66675.22
2023-01-18T23:59:14.416Z,66722.81
